»·PEaware :: N336CT KSJC-KRNO

N336CT :: KSJC-KRNO

FLIGHT INFORMATION

Flight Status: Arrived
Operator: Privately registered:
United States
More flights under this callsign
Pilot: Sanjiv S. (4490)
Aircraft: PIPER PA-28R-201 ARROW
(P28R)
More flights by this aircraft type
Origin: KSJC Mineta San Jose Intl
United States
Destination: KRNO Reno/Tahoe Intl
United States
More flights between these airports :: More routes between these airports
Route: +LOUPE4 BMRNG LIN V28 FMG
File this flight plan on PilotEdge
Remarks:
Altitude:
(Current/Filed)
15,000ft
Speed:
(Current/Filed)
130kts
Departed: 29-Mar-18 08:53 PM
Arrived: 29-Mar-18 10:36 PM
Distance/Time
Traveled:
164nm/1:42
Distance/Time
To Go:
Arrived

Flight Plot

Page will automatically refresh every two minutes.

Flight plan parsing failed; only flown route is shown


Map Options




Map Legend


Flown Route
Filed Route
Departure Airport
Arrival Airport
Navaid (VOR, NDB)
Fix

Horizontal Profiles

Position Reports

Time Latitude Longitude Heading Altitude Ground
Speed
29-Mar-18 20:20 37.363199 -121.936885 135 46ft 0kts
29-Mar-18 20:21 37.363199 -121.936885 135 46ft 0kts
29-Mar-18 20:22 37.363199 -121.936885 135 46ft 0kts
29-Mar-18 20:23 37.363199 -121.936885 135 46ft 0kts
29-Mar-18 20:24 37.363199 -121.936885 135 46ft 0kts
29-Mar-18 20:25 37.363199 -121.936885 135 46ft 0kts
29-Mar-18 20:26 37.363199 -121.936885 135 46ft 0kts
29-Mar-18 20:27 37.363199 -121.936885 135 46ft 0kts
29-Mar-18 20:28 37.363199 -121.936885 135 46ft 0kts
29-Mar-18 20:29 37.363199 -121.936885 135 46ft 0kts
29-Mar-18 20:30 37.363199 -121.936885 135 46ft 0kts
29-Mar-18 20:31 37.363199 -121.936885 135 46ft 0kts
29-Mar-18 20:32 37.363199 -121.936885 135 46ft 0kts
29-Mar-18 20:33 37.363199 -121.936885 135 46ft 0kts
29-Mar-18 20:34 37.363199 -121.936885 134 46ft 0kts
29-Mar-18 20:35 37.363199 -121.936885 135 46ft 0kts
29-Mar-18 20:36 37.363199 -121.936885 135 46ft 0kts
29-Mar-18 20:37 37.363199 -121.936885 135 46ft 0kts
29-Mar-18 20:38 37.363199 -121.936885 135 46ft 0kts
29-Mar-18 20:39 37.363199 -121.936885 135 46ft 0kts
29-Mar-18 20:40 37.363006 -121.936426 96 46ft 7kts
29-Mar-18 20:41 37.361288 -121.933112 65 49ft 12kts
29-Mar-18 20:42 37.359861 -121.930117 143 49ft 12kts
29-Mar-18 20:43 37.357484 -121.927560 140 54ft 11kts
29-Mar-18 20:44 37.356056 -121.924592 138 56ft 12kts
29-Mar-18 20:45 37.353462 -121.921807 141 59ft 11kts
29-Mar-18 20:46 37.352003 -121.919980 50 59ft 0kts
29-Mar-18 20:47 37.352003 -121.919980 50 59ft 0kts
29-Mar-18 20:48 37.352003 -121.919980 50 59ft 0kts
29-Mar-18 20:49 37.352003 -121.919980 50 59ft 0kts
29-Mar-18 20:50 37.352003 -121.919980 50 59ft 0kts
29-Mar-18 20:51 37.352234 -121.919534 52 61ft 4kts
29-Mar-18 20:52 37.358461 -121.925051 318 183ft 73kts
29-Mar-18 20:53 37.373060 -121.939799 326 1176ft 74kts
29-Mar-18 20:54 37.390293 -121.953685 336 2146ft 77kts
29-Mar-18 20:55 37.409307 -121.961526 41 2925ft 90kts
29-Mar-18 20:56 37.396858 -121.930677 147 3013ft 122kts
29-Mar-18 20:57 37.369274 -121.906437 141 2987ft 118kts
29-Mar-18 20:58 37.343646 -121.881152 134 3472ft 118kts
29-Mar-18 20:59 37.317314 -121.856346 145 3962ft 118kts
29-Mar-18 21:00 37.289930 -121.833118 145 4407ft 119kts
29-Mar-18 21:01 37.262266 -121.809888 145 4842ft 119kts
29-Mar-18 21:02 37.234623 -121.787011 144 5269ft 118kts
29-Mar-18 21:03 37.207328 -121.764888 145 5730ft 116kts
29-Mar-18 21:04 37.178603 -121.755527 229 6097ft 114kts
29-Mar-18 21:05 37.189953 -121.783848 324 6473ft 103kts
29-Mar-18 21:06 37.214998 -121.800290 332 6860ft 101kts
29-Mar-18 21:07 37.239683 -121.817753 328 7209ft 101kts
29-Mar-18 21:08 37.263565 -121.835612 335 7522ft 101kts
29-Mar-18 21:09 37.285852 -121.818706 49 7768ft 115kts
29-Mar-18 21:10 37.305410 -121.788326 40 8357ft 111kts
29-Mar-18 21:11 37.327081 -121.761146 36 8881ft 111kts
29-Mar-18 21:12 37.344080 -121.742559 33 9243ft 111kts
29-Mar-18 21:13 37.368489 -121.719091 29 9716ft 110kts
29-Mar-18 21:14 37.393970 -121.697913 25 10153ft 110kts
29-Mar-18 21:15 37.417824 -121.673420 35 10536ft 114kts
29-Mar-18 21:16 37.441592 -121.647970 31 10927ft 113kts
29-Mar-18 21:17 37.466534 -121.624386 29 11289ft 112kts
29-Mar-18 21:18 37.491494 -121.600731 30 11623ft 113kts
29-Mar-18 21:19 37.516621 -121.575980 31 11940ft 113kts
29-Mar-18 21:20 37.539105 -121.553408 31 12208ft 114kts
29-Mar-18 21:21 37.563472 -121.528706 31 12482ft 114kts
29-Mar-18 21:22 37.587967 -121.503806 31 12740ft 115kts
29-Mar-18 21:23 37.607772 -121.483630 30 13013ft 111kts
29-Mar-18 21:24 37.623842 -121.467271 30 13286ft 105kts
29-Mar-18 21:25 37.647041 -121.443597 30 13619ft 107kts
29-Mar-18 21:26 37.670692 -121.419509 30 13949ft 109kts
29-Mar-18 21:27 37.694321 -121.395338 29 14264ft 109kts
29-Mar-18 21:28 37.718143 -121.371038 29 14558ft 110kts
29-Mar-18 21:29 37.741488 -121.347078 31 14832ft 111kts
29-Mar-18 21:30 37.764833 -121.322281 29 15086ft 112kts
29-Mar-18 21:31 37.791637 -121.294889 31 14962ft 129kts
29-Mar-18 21:32 37.819304 -121.266291 31 14979ft 126kts
29-Mar-18 21:33 37.846234 -121.239029 31 14984ft 122kts
29-Mar-18 21:34 37.871921 -121.212671 30 14985ft 120kts
29-Mar-18 21:35 37.898350 -121.185437 31 14985ft 123kts
29-Mar-18 21:36 37.925144 -121.157832 32 14985ft 123kts
29-Mar-18 21:37 37.951688 -121.130450 32 14987ft 122kts
29-Mar-18 21:38 37.977886 -121.103407 33 14991ft 122kts
29-Mar-18 21:39 38.004277 -121.076123 34 14996ft 121kts
29-Mar-18 21:40 38.030650 -121.048850 35 15003ft 121kts
29-Mar-18 21:41 38.056805 -121.021832 35 15012ft 121kts
29-Mar-18 21:42 38.083092 -120.994451 37 15023ft 121kts
29-Mar-18 21:43 38.108602 -120.968441 35 15032ft 122kts
29-Mar-18 21:44 38.131788 -120.936200 45 15036ft 124kts
29-Mar-18 21:45 38.155539 -120.904225 43 15005ft 126kts
29-Mar-18 21:46 38.180263 -120.872725 41 14991ft 124kts
29-Mar-18 21:47 38.203732 -120.844024 42 14991ft 124kts
29-Mar-18 21:48 38.228562 -120.813364 40 14991ft 124kts
29-Mar-18 21:49 38.253155 -120.782454 41 14990ft 124kts
29-Mar-18 21:50 38.278235 -120.751180 41 14990ft 125kts
29-Mar-18 21:51 38.303040 -120.720202 42 14990ft 125kts
29-Mar-18 21:52 38.328392 -120.688878 43 14991ft 125kts
29-Mar-18 21:53 38.353353 -120.657702 40 14992ft 125kts
29-Mar-18 21:54 38.377835 -120.626538 41 14993ft 125kts
29-Mar-18 21:55 38.402581 -120.595878 42 15010ft 125kts
29-Mar-18 21:56 38.427529 -120.564970 40 15016ft 124kts
29-Mar-18 21:57 38.451657 -120.534206 41 15023ft 124kts
29-Mar-18 21:58 38.476031 -120.502800 47 15030ft 125kts
29-Mar-18 21:59 38.498131 -120.468275 47 15039ft 125kts
29-Mar-18 22:00 38.520220 -120.433508 47 15060ft 124kts
29-Mar-18 22:01 38.541974 -120.399050 48 15085ft 124kts
29-Mar-18 22:02 38.563693 -120.364419 48 15114ft 124kts
29-Mar-18 22:03 38.584745 -120.330621 48 15131ft 124kts
29-Mar-18 22:04 38.606167 -120.295999 49 15148ft 124kts
29-Mar-18 22:05 38.627525 -120.261269 49 15166ft 124kts
29-Mar-18 22:06 38.653059 -120.233070 26 15179ft 123kts
29-Mar-18 22:07 38.683624 -120.213117 26 15178ft 123kts
29-Mar-18 22:08 38.714460 -120.193068 25 15178ft 124kts
29-Mar-18 22:09 38.745134 -120.173120 26 15178ft 124kts
29-Mar-18 22:10 38.776218 -120.152901 26 15178ft 124kts
29-Mar-18 22:11 38.806954 -120.132940 25 15178ft 123kts
29-Mar-18 22:12 38.837400 -120.113039 25 15178ft 123kts
29-Mar-18 22:13 38.867950 -120.093186 26 15178ft 123kts
29-Mar-18 22:14 38.898962 -120.072810 25 15178ft 123kts
29-Mar-18 22:15 38.929657 -120.052727 23 15177ft 123kts
29-Mar-18 22:16 38.960269 -120.032691 22 15177ft 123kts
29-Mar-18 22:17 38.990833 -120.012668 20 15177ft 124kts
29-Mar-18 22:18 39.022059 -119.992197 19 15177ft 127kts
29-Mar-18 22:19 39.054967 -119.970672 19 14983ft 139kts
29-Mar-18 22:20 39.090222 -119.947167 20 14545ft 145kts
29-Mar-18 22:21 39.125554 -119.923967 20 14018ft 150kts
29-Mar-18 22:22 39.162232 -119.899985 21 13095ft 146kts
29-Mar-18 22:23 39.198585 -119.876340 21 12140ft 144kts
29-Mar-18 22:24 39.232268 -119.854214 21 11791ft 128kts
29-Mar-18 22:25 39.262244 -119.834566 20 12189ft 119kts
29-Mar-18 22:26 39.294289 -119.813391 21 12181ft 134kts
29-Mar-18 22:27 39.328977 -119.793451 8 12033ft 136kts
29-Mar-18 22:28 39.367353 -119.780896 13 10818ft 142kts
29-Mar-18 22:29 39.404829 -119.766002 13 9358ft 141kts
29-Mar-18 22:30 39.442106 -119.756089 4 7958ft 135kts
29-Mar-18 22:31 39.479367 -119.752908 0 6393ft 132kts
29-Mar-18 22:32 39.512218 -119.752471 354 5676ft 102kts
29-Mar-18 22:33 39.539177 -119.754651 304 5275ft 98kts
29-Mar-18 22:34 39.519272 -119.766658 179 4570ft 94kts
29-Mar-18 22:35 39.503924 -119.766765 179 4403ft 12kts
29-Mar-18 22:36 39.502554 -119.765786 179 4403ft 4kts
29-Mar-18 22:37 39.501354 -119.765776 181 4403ft 6kts
29-Mar-18 22:38 39.501098 -119.764482 0 4402ft 0kts

Navigation Log

Ident Type
Flight plan parsing failed, navigation log unavailable